createdAt,value
2023-04-01T00:02:26.563Z,15.70
2023-04-01T00:04:56.865Z,15.70
2023-04-01T00:07:30.828Z,15.80
2023-04-01T00:10:01.548Z,15.80
2023-04-01T00:12:31.792Z,15.90
2023-04-01T00:15:02.953Z,15.90
2023-04-01T00:17:34.049Z,16.10
2023-04-01T00:20:05.433Z,16.10
2023-04-01T00:22:36.640Z,16.20
2023-04-01T00:25:08.293Z,16.30
2023-04-01T00:27:38.852Z,16.40
2023-04-01T00:30:10.364Z,16.40
2023-04-01T00:32:42.373Z,16.50
2023-04-01T00:35:13.800Z,16.60
2023-04-01T00:37:44.198Z,16.80
2023-04-01T00:40:30.346Z,16.80
2023-04-01T00:43:01.563Z,16.80
2023-04-01T00:45:40.813Z,16.80
2023-04-01T00:48:28.197Z,16.90
2023-04-01T00:51:24.278Z,17.10
2023-04-01T00:53:59.102Z,17.10
2023-04-01T00:56:34.012Z,17.20
2023-04-01T00:59:27.925Z,17.30
2023-04-01T01:01:58.666Z,17.50
2023-04-01T01:04:35.584Z,17.70
2023-04-01T01:07:23.988Z,17.90
2023-04-01T01:10:21.420Z,18.00
2023-04-01T01:13:06.717Z,18.10
2023-04-01T01:15:49.333Z,18.20
2023-04-01T01:18:37.809Z,18.30
2023-04-01T01:21:36.165Z,18.40
2023-04-01T01:24:20.107Z,18.40
2023-04-01T01:27:03.150Z,18.50
2023-04-01T01:30:03.809Z,18.40
2023-04-01T01:32:34.896Z,18.40
2023-04-01T01:35:33.377Z,18.40
2023-04-01T01:38:27.044Z,18.40
2023-04-01T01:41:01.082Z,18.30
2023-04-01T01:43:37.391Z,18.30
2023-04-01T01:46:16.625Z,18.20
2023-04-01T01:48:49.290Z,18.20
2023-04-01T01:51:20.691Z,18.10
2023-04-01T01:53:51.520Z,18.00
2023-04-01T01:56:25.336Z,17.90
2023-04-01T01:59:03.366Z,17.80
2023-04-01T02:01:37.822Z,17.80
2023-04-01T02:04:08.363Z,17.70
2023-04-01T02:06:43.196Z,17.60
2023-04-01T02:09:15.154Z,17.60
2023-04-01T02:12:10.570Z,17.60
2023-04-01T02:14:57.561Z,17.60
2023-04-01T02:17:31.352Z,17.60
2023-04-01T02:20:09.603Z,17.60
2023-04-01T02:22:48.641Z,17.60
2023-04-01T02:25:24.098Z,17.60
2023-04-01T02:27:54.920Z,17.60
2023-04-01T02:30:26.475Z,17.60
2023-04-01T02:32:58.756Z,17.60
2023-04-01T02:35:30.169Z,17.60
2023-04-01T02:38:01.221Z,17.60
2023-04-01T02:40:32.014Z,17.70
2023-04-01T02:43:02.339Z,17.70
2023-04-01T02:45:32.836Z,17.70
2023-04-01T02:48:03.266Z,17.80
2023-04-01T02:50:33.766Z,17.80
2023-04-01T02:53:07.766Z,17.80
2023-04-01T02:55:38.304Z,17.90
2023-04-01T02:58:15.234Z,18.00
2023-04-01T03:00:45.717Z,18.00
2023-04-01T03:03:16.635Z,18.10
2023-04-01T03:05:47.525Z,18.10
2023-04-01T03:08:21.557Z,18.10
2023-04-01T03:11:11.214Z,18.00
2023-04-01T03:14:00.943Z,18.00
2023-04-01T03:16:31.467Z,18.00
2023-04-01T03:19:04.582Z,18.00
2023-04-01T03:21:35.219Z,18.00
2023-04-01T03:24:05.608Z,18.10
2023-04-01T03:26:36.388Z,18.10
2023-04-01T03:29:07.610Z,18.20
2023-04-01T03:31:38.557Z,18.30
2023-04-01T03:34:09.226Z,18.30
2023-04-01T03:36:40.557Z,18.30
2023-04-01T03:39:11.290Z,18.30
2023-04-01T03:41:42.096Z,18.30
2023-04-01T03:44:13.715Z,18.20
2023-04-01T03:46:47.906Z,18.20
2023-04-01T03:49:18.976Z,18.10
2023-04-01T03:51:49.823Z,18.20
2023-04-01T03:54:22.459Z,18.20
2023-04-01T03:56:54.494Z,18.20
2023-04-01T03:59:25.529Z,18.20
2023-04-01T04:01:56.229Z,18.20
2023-04-01T04:04:28.308Z,18.20
2023-04-01T04:07:00.284Z,18.10
2023-04-01T04:09:32.627Z,18.10
2023-04-01T04:12:05.702Z,18.00
2023-04-01T04:14:36.772Z,18.00
2023-04-01T04:17:07.698Z,18.00
2023-04-01T04:19:38.579Z,18.00
2023-04-01T04:22:09.289Z,17.90
2023-04-01T04:24:40.567Z,17.90
2023-04-01T04:27:11.527Z,17.90
2023-04-01T04:29:42.215Z,17.90
2023-04-01T04:32:13.464Z,17.90
2023-04-01T04:34:45.437Z,17.90
2023-04-01T04:37:16.610Z,18.00
2023-04-01T04:39:47.544Z,18.00
2023-04-01T04:42:38.924Z,17.90
2023-04-01T04:45:19.497Z,17.90
2023-04-01T04:47:51.162Z,18.00
2023-04-01T04:50:22.192Z,18.00
2023-04-01T04:52:52.885Z,17.90
2023-04-01T04:55:24.839Z,17.90
2023-04-01T04:57:55.933Z,17.90
2023-04-01T05:00:26.625Z,17.90
2023-04-01T05:02:58.298Z,17.90
2023-04-01T05:05:29.303Z,17.90
2023-04-01T05:08:01.263Z,17.90
2023-04-01T05:10:34.844Z,17.80
2023-04-01T05:13:05.991Z,17.90
2023-04-01T05:15:37.003Z,17.90
2023-04-01T05:18:07.956Z,18.00
2023-04-01T05:20:39.482Z,18.00
2023-04-01T05:23:10.197Z,18.00
2023-04-01T05:25:45.353Z,18.00
2023-04-01T05:28:18.293Z,18.00
2023-04-01T05:30:49.119Z,18.10
2023-04-01T05:33:34.070Z,18.10
2023-04-01T05:36:16.514Z,18.20
2023-04-01T05:38:54.765Z,18.20
2023-04-01T05:41:25.522Z,18.20
2023-04-01T05:43:56.503Z,18.10
2023-04-01T05:46:29.105Z,18.10
2023-04-01T05:49:00.551Z,18.10
2023-04-01T05:51:31.438Z,18.00
2023-04-01T05:54:03.102Z,18.00
2023-04-01T05:56:34.105Z,18.00
2023-04-01T05:59:05.579Z,18.00
2023-04-01T06:01:38.539Z,18.00
2023-04-01T06:04:09.560Z,18.00
2023-04-01T06:06:42.011Z,18.00
2023-04-01T06:09:30.360Z,18.00
2023-04-01T06:12:38.976Z,18.00
2023-04-01T06:15:33.700Z,17.90
2023-04-01T06:18:25.903Z,17.80
2023-04-01T06:21:25.755Z,17.70
2023-04-01T06:24:16.314Z,17.70
2023-04-01T06:27:06.074Z,17.50
2023-04-01T06:29:58.050Z,17.40
2023-04-01T06:32:54.184Z,17.30
2023-04-01T06:35:30.173Z,17.20
2023-04-01T06:38:27.840Z,17.10
2023-04-01T06:41:15.404Z,17.10
2023-04-01T06:43:59.676Z,17.00
2023-04-01T06:46:56.716Z,16.90
2023-04-01T06:49:55.633Z,16.90
2023-04-01T06:52:52.403Z,16.80
2023-04-01T06:55:54.585Z,16.80
2023-04-01T06:58:52.639Z,16.70
2023-04-01T07:01:50.477Z,16.70
2023-04-01T07:04:20.638Z,16.70
2023-04-01T07:07:06.888Z,16.70
2023-04-01T07:09:45.147Z,16.60
2023-04-01T07:12:41.679Z,16.60
2023-04-01T07:15:24.149Z,16.60
2023-04-01T07:18:12.961Z,16.50
2023-04-01T07:20:43.267Z,16.50
2023-04-01T07:23:28.743Z,16.40
2023-04-01T07:26:04.363Z,16.40
2023-04-01T07:28:39.089Z,16.40
2023-04-01T07:31:33.152Z,16.30
2023-04-01T07:34:20.009Z,16.30
2023-04-01T07:37:07.381Z,16.30
2023-04-01T07:39:56.101Z,16.20
2023-04-01T07:43:26.727Z,16.20
2023-04-01T07:46:14.499Z,16.10
2023-04-01T07:49:13.351Z,16.10
2023-04-01T07:51:44.036Z,16.00
2023-04-01T07:54:30.389Z,16.00
2023-04-01T07:57:18.293Z,16.00
2023-04-01T08:00:14.236Z,15.90
2023-04-01T08:03:03.500Z,15.90
2023-04-01T08:05:45.700Z,15.80
2023-04-01T08:08:33.151Z,15.80
2023-04-01T08:11:30.956Z,15.80
2023-04-01T08:14:20.386Z,15.70
2023-04-01T08:17:38.329Z,15.70
2023-04-01T08:20:25.281Z,15.60
2023-04-01T08:23:03.982Z,15.60
2023-04-01T08:25:36.146Z,15.60
2023-04-01T08:28:25.486Z,15.50
2023-04-01T08:31:18.720Z,15.40
2023-04-01T08:33:53.049Z,15.40
2023-04-01T08:36:37.448Z,15.40
2023-04-01T08:39:20.467Z,15.40
2023-04-01T08:42:16.716Z,15.30
2023-04-01T08:45:05.609Z,15.20
2023-04-01T08:48:01.418Z,15.20
2023-04-01T08:50:59.017Z,15.10
2023-04-01T08:54:17.240Z,15.10
2023-04-01T08:57:13.575Z,15.10
2023-04-01T08:59:51.214Z,15.00
2023-04-01T09:02:54.855Z,15.00
2023-04-01T09:06:02.992Z,14.90
2023-04-01T09:08:48.245Z,14.80
2023-04-01T09:11:45.259Z,14.70
2023-04-01T09:14:46.150Z,14.60
2023-04-01T09:17:22.999Z,14.60
2023-04-01T09:19:56.030Z,14.50
2023-04-01T09:23:03.649Z,14.50
2023-04-01T09:25:55.407Z,14.40
2023-04-01T09:28:48.043Z,14.40
2023-04-01T09:31:29.779Z,14.20
2023-04-01T09:34:21.696Z,14.20
2023-04-01T09:37:22.374Z,14.20
2023-04-01T09:40:30.888Z,14.10
2023-04-01T09:43:16.950Z,14.10
2023-04-01T09:45:50.577Z,14.00
2023-04-01T09:48:50.685Z,14.00
2023-04-01T09:51:41.434Z,13.90
2023-04-01T09:54:40.438Z,13.80
2023-04-01T09:57:47.278Z,13.80
2023-04-01T10:00:49.707Z,13.80
2023-04-01T10:03:29.898Z,13.80
2023-04-01T10:06:47.935Z,13.70
2023-04-01T10:09:52.088Z,13.70
2023-04-01T10:12:44.413Z,13.70
2023-04-01T10:15:43.011Z,13.60
2023-04-01T10:18:32.270Z,13.50
2023-04-01T10:21:20.359Z,13.50
2023-04-01T10:24:08.631Z,13.40
2023-04-01T10:26:42.022Z,13.30
2023-04-01T10:29:50.588Z,13.30
2023-04-01T10:32:39.917Z,13.30
2023-04-01T10:35:25.542Z,13.20
2023-04-01T10:38:32.168Z,13.10
2023-04-01T10:41:39.202Z,13.00
2023-04-01T10:44:42.726Z,13.00
2023-04-01T10:47:47.719Z,12.90
2023-04-01T10:50:29.137Z,12.80
2023-04-01T10:53:19.200Z,12.70
2023-04-01T10:55:55.955Z,12.60
2023-04-01T10:59:03.098Z,12.50
2023-04-01T11:02:11.202Z,12.40
2023-04-01T11:05:07.062Z,12.40
2023-04-01T11:08:16.575Z,12.30
2023-04-01T11:11:05.135Z,12.20
2023-04-01T11:14:01.449Z,12.20
2023-04-01T11:16:51.693Z,12.10
2023-04-01T11:20:05.741Z,12.10
2023-04-01T11:22:50.667Z,12.10
2023-04-01T11:25:57.969Z,12.00
2023-04-01T11:29:01.864Z,12.10
2023-04-01T11:31:51.475Z,12.00
2023-04-01T11:34:34.945Z,12.10
2023-04-01T11:37:20.742Z,12.00
2023-04-01T11:40:51.767Z,12.00
2023-04-01T11:43:57.556Z,12.00
2023-04-01T11:46:57.328Z,11.90
2023-04-01T11:49:37.705Z,11.90
2023-04-01T11:52:26.547Z,11.80
2023-04-01T11:55:28.640Z,11.80
2023-04-01T11:58:26.041Z,11.80
2023-04-01T12:01:11.535Z,11.80
2023-04-01T12:03:55.952Z,11.80
2023-04-01T12:06:52.835Z,11.80
2023-04-01T12:09:31.611Z,11.80
2023-04-01T12:12:11.133Z,11.70
2023-04-01T12:15:18.344Z,11.70
2023-04-01T12:18:27.465Z,11.70
2023-04-01T12:21:06.229Z,11.70
2023-04-01T12:24:06.474Z,11.70
2023-04-01T12:26:45.975Z,11.60
2023-04-01T12:29:50.611Z,11.60
2023-04-01T12:32:45.455Z,11.60
2023-04-01T12:35:25.596Z,11.50
2023-04-01T12:38:14.969Z,11.50
2023-04-01T12:41:21.568Z,11.40
2023-04-01T12:44:04.811Z,11.30
2023-04-01T12:47:33.591Z,11.40
2023-04-01T12:50:05.799Z,11.40
2023-04-01T12:53:01.796Z,11.40
2023-04-01T12:55:58.453Z,11.30
2023-04-01T12:58:29.063Z,11.30
2023-04-01T13:01:06.631Z,11.30
2023-04-01T13:04:13.311Z,11.30
2023-04-01T13:06:55.984Z,11.40
2023-04-01T13:10:07.742Z,11.40
2023-04-01T13:13:03.889Z,11.30
2023-04-01T13:15:40.710Z,11.30
2023-04-01T13:18:49.511Z,11.30
2023-04-01T13:21:54.166Z,11.30
2023-04-01T13:24:34.521Z,11.40
2023-04-01T13:27:21.110Z,11.40
2023-04-01T13:30:09.455Z,11.40
2023-04-01T13:32:50.275Z,11.40
2023-04-01T13:35:58.335Z,11.50
2023-04-01T13:38:51.725Z,11.50
2023-04-01T13:41:55.473Z,11.50
2023-04-01T13:44:35.231Z,11.60
2023-04-01T13:47:21.321Z,11.60
2023-04-01T13:50:12.192Z,11.50
2023-04-01T13:53:10.800Z,11.50
2023-04-01T13:55:56.543Z,11.50
2023-04-01T13:58:42.086Z,11.40
2023-04-01T14:01:33.526Z,11.40
2023-04-01T14:04:28.796Z,11.30
2023-04-01T14:07:17.421Z,11.30
2023-04-01T14:09:47.704Z,11.20
2023-04-01T14:12:33.582Z,11.20
2023-04-01T14:15:29.907Z,11.10
2023-04-01T14:18:19.721Z,11.10
2023-04-01T14:21:16.311Z,11.00
2023-04-01T14:24:03.736Z,11.00
2023-04-01T14:27:05.829Z,11.10
2023-04-01T14:30:02.959Z,11.00
2023-04-01T14:32:36.379Z,11.00
2023-04-01T14:35:35.729Z,11.00
2023-04-01T14:38:44.755Z,11.00
2023-04-01T14:41:40.975Z,10.90
2023-04-01T14:44:26.479Z,11.00
2023-04-01T14:47:28.750Z,10.90
2023-04-01T14:50:21.493Z,10.90
2023-04-01T14:53:01.513Z,10.90
2023-04-01T14:55:38.241Z,10.80
2023-04-01T14:58:08.552Z,10.80
2023-04-01T15:00:56.254Z,10.80
2023-04-01T15:03:30.096Z,10.70
2023-04-01T15:06:27.742Z,10.70
2023-04-01T15:09:33.688Z,10.60
2023-04-01T15:12:47.626Z,10.60
2023-04-01T15:15:30.532Z,10.60
2023-04-01T15:18:13.428Z,10.50
2023-04-01T15:21:32.806Z,10.50
2023-04-01T15:24:44.513Z,10.50
2023-04-01T15:27:45.471Z,10.50
2023-04-01T15:30:26.292Z,10.40
2023-04-01T15:33:22.458Z,10.40
2023-04-01T15:36:10.737Z,10.40
2023-04-01T15:38:48.649Z,10.40
2023-04-01T15:42:14.158Z,10.40
2023-04-01T15:45:03.117Z,10.30
2023-04-01T15:47:43.248Z,10.30
2023-04-01T15:50:34.878Z,10.30
2023-04-01T15:53:17.514Z,10.30
2023-04-01T15:55:52.519Z,10.30
2023-04-01T15:58:47.351Z,10.30
2023-04-01T16:01:29.096Z,10.30
2023-04-01T16:04:23.997Z,10.30
2023-04-01T16:07:05.838Z,10.30
2023-04-01T16:09:36.763Z,10.30
2023-04-01T16:12:07.500Z,10.30
2023-04-01T16:14:58.948Z,10.20
2023-04-01T16:17:30.277Z,10.20
2023-04-01T16:20:09.151Z,10.20
2023-04-01T16:23:02.177Z,10.20
2023-04-01T16:25:57.523Z,10.20
2023-04-01T16:28:43.737Z,10.20
2023-04-01T16:31:36.857Z,10.20
2023-04-01T16:34:07.534Z,10.20
2023-04-01T16:37:04.707Z,10.10
2023-04-01T16:39:56.796Z,10.10
2023-04-01T16:42:39.285Z,10.10
2023-04-01T16:45:23.062Z,10.00
2023-04-01T16:47:59.254Z,9.90
2023-04-01T16:50:50.029Z,9.90
2023-04-01T16:53:51.406Z,9.80
2023-04-01T16:56:27.753Z,9.90
2023-04-01T16:59:12.998Z,9.90
2023-04-01T17:01:59.274Z,9.90
2023-04-01T17:04:37.321Z,9.80
2023-04-01T17:07:40.200Z,9.90
2023-04-01T17:10:22.950Z,9.80
2023-04-01T17:13:14.626Z,9.80
2023-04-01T17:15:59.326Z,9.70
2023-04-01T17:19:02.127Z,9.70
2023-04-01T17:21:50.700Z,9.60
2023-04-01T17:24:39.346Z,9.60
2023-04-01T17:27:21.965Z,9.50
2023-04-01T17:30:17.930Z,9.50
2023-04-01T17:33:06.644Z,9.40
2023-04-01T17:36:06.644Z,9.40
2023-04-01T17:39:05.554Z,9.30
2023-04-01T17:41:57.319Z,9.30
2023-04-01T17:45:06.608Z,9.30
2023-04-01T17:47:40.686Z,9.20
2023-04-01T17:50:25.990Z,9.20
2023-04-01T17:53:09.764Z,9.20
2023-04-01T17:56:27.465Z,9.20
2023-04-01T17:59:23.660Z,9.20
2023-04-01T18:01:56.785Z,9.10
2023-04-01T18:05:15.850Z,9.10
2023-04-01T18:07:55.767Z,9.00
2023-04-01T18:10:29.080Z,9.00
2023-04-01T18:13:12.591Z,8.90
2023-04-01T18:16:20.159Z,8.90
2023-04-01T18:19:19.475Z,8.80
2023-04-01T18:22:08.210Z,8.80
2023-04-01T18:24:49.334Z,8.70
2023-04-01T18:27:31.542Z,8.70
2023-04-01T18:30:20.210Z,8.70
2023-04-01T18:33:27.532Z,8.60
2023-04-01T18:36:06.617Z,8.60
2023-04-01T18:38:59.948Z,8.60
2023-04-01T18:41:30.575Z,8.60
2023-04-01T18:44:28.370Z,8.60
2023-04-01T18:47:45.452Z,8.60
2023-04-01T18:50:55.291Z,8.60
2023-04-01T18:53:36.611Z,8.60
2023-04-01T18:56:16.825Z,8.60
2023-04-01T18:59:03.231Z,8.60
2023-04-01T19:01:40.731Z,8.50
2023-04-01T19:04:23.187Z,8.50
2023-04-01T19:07:03.635Z,8.50
2023-04-01T19:09:35.925Z,8.40
2023-04-01T19:12:37.733Z,8.40
2023-04-01T19:15:43.464Z,8.40
2023-04-01T19:18:35.027Z,8.40
2023-04-01T19:21:46.750Z,8.30
2023-04-01T19:24:36.919Z,8.30
2023-04-01T19:27:19.089Z,8.30
2023-04-01T19:29:56.376Z,8.20
2023-04-01T19:33:01.344Z,8.20
2023-04-01T19:35:41.000Z,8.10
2023-04-01T19:38:43.146Z,8.10
2023-04-01T19:41:40.040Z,8.10
2023-04-01T19:44:28.811Z,8.00
2023-04-01T19:47:27.733Z,8.00
2023-04-01T19:50:15.693Z,8.00
2023-04-01T19:52:46.126Z,8.00
2023-04-01T19:56:02.194Z,8.00
2023-04-01T19:58:55.532Z,7.90
2023-04-01T20:01:44.653Z,7.90
2023-04-01T20:04:36.603Z,7.90
2023-04-01T20:07:54.796Z,7.90
2023-04-01T20:11:19.037Z,7.90
2023-04-01T20:14:04.685Z,7.90
2023-04-01T20:16:59.240Z,7.90
2023-04-01T20:19:44.282Z,7.90
2023-04-01T20:22:48.144Z,7.90
2023-04-01T20:25:34.252Z,7.90
2023-04-01T20:28:26.479Z,7.90
2023-04-01T20:31:19.736Z,7.90
2023-04-01T20:34:20.142Z,7.90
2023-04-01T20:37:09.185Z,7.90
2023-04-01T20:40:07.795Z,8.00
2023-04-01T20:42:41.838Z,8.00
2023-04-01T20:45:34.552Z,8.10
2023-04-01T20:48:23.041Z,8.10
2023-04-01T20:51:09.344Z,8.20
2023-04-01T20:54:09.254Z,8.30
2023-04-01T20:56:46.136Z,8.40
2023-04-01T20:59:32.502Z,8.50
2023-04-01T21:02:03.315Z,8.50
2023-04-01T21:05:26.775Z,8.60
2023-04-01T21:08:15.636Z,8.70
2023-04-01T21:11:26.476Z,8.80
2023-04-01T21:14:15.727Z,9.00
2023-04-01T21:17:02.577Z,9.20
2023-04-01T21:19:44.917Z,9.30
2023-04-01T21:22:40.531Z,9.40
2023-04-01T21:25:23.901Z,9.50
2023-04-01T21:28:19.663Z,9.60
2023-04-01T21:31:37.144Z,9.80
2023-04-01T21:34:16.379Z,9.90
2023-04-01T21:37:09.616Z,10.00
2023-04-01T21:40:12.001Z,10.20
2023-04-01T21:43:04.175Z,10.30
2023-04-01T21:46:00.721Z,10.40
2023-04-01T21:48:51.984Z,10.50
2023-04-01T21:51:41.422Z,10.70
2023-04-01T21:54:29.734Z,10.70
2023-04-01T21:57:34.605Z,10.80
2023-04-01T22:00:18.623Z,10.90
2023-04-01T22:03:31.062Z,10.90
2023-04-01T22:06:09.117Z,11.00
2023-04-01T22:08:57.297Z,11.10
2023-04-01T22:12:04.205Z,11.10
2023-04-01T22:15:02.542Z,11.20
2023-04-01T22:17:39.331Z,11.30
2023-04-01T22:20:47.818Z,11.40
2023-04-01T22:23:20.886Z,11.50
2023-04-01T22:26:01.311Z,11.60
2023-04-01T22:28:49.602Z,11.70
2023-04-01T22:31:26.917Z,11.80
2023-04-01T22:33:57.206Z,12.00
2023-04-01T22:37:05.337Z,12.10
2023-04-01T22:40:02.731Z,12.20
2023-04-01T22:42:58.490Z,12.30
2023-04-01T22:45:47.174Z,12.40
2023-04-01T22:48:28.073Z,12.50
2023-04-01T22:51:21.917Z,12.70
2023-04-01T22:54:10.694Z,12.80
2023-04-01T22:57:00.047Z,12.80
2023-04-01T22:59:39.192Z,12.90
2023-04-01T23:02:24.672Z,13.00
2023-04-01T23:05:01.714Z,13.00
2023-04-01T23:07:39.531Z,13.10
2023-04-01T23:10:23.933Z,13.20
2023-04-01T23:13:00.459Z,13.30
2023-04-01T23:15:35.447Z,13.30
2023-04-01T23:18:33.735Z,13.40
2023-04-01T23:21:19.894Z,13.50
2023-04-01T23:24:23.094Z,13.60
2023-04-01T23:27:04.114Z,13.80
2023-04-01T23:29:38.698Z,13.90
2023-04-01T23:32:17.113Z,14.00
2023-04-01T23:34:53.768Z,14.10
2023-04-01T23:37:24.907Z,14.30
2023-04-01T23:40:08.157Z,14.40
2023-04-01T23:42:44.484Z,14.50
2023-04-01T23:45:28.336Z,14.60
2023-04-01T23:48:00.342Z,14.70
2023-04-01T23:50:51.343Z,14.80
2023-04-01T23:54:05.435Z,15.00
2023-04-01T23:56:44.111Z,15.20
2023-04-01T23:59:36.147Z,15.30
